createdAt,value
2018-05-17T00:04:04.441Z,99.90
2018-05-17T00:09:11.623Z,99.90
2018-05-17T00:14:18.735Z,99.90
2018-05-17T00:19:25.934Z,99.90
2018-05-17T00:24:33.184Z,99.90
2018-05-17T00:29:40.224Z,99.90
2018-05-17T00:34:47.429Z,99.90
2018-05-17T00:39:54.538Z,99.90
2018-05-17T00:45:01.726Z,99.90
2018-05-17T00:50:08.843Z,99.90
2018-05-17T00:55:16.763Z,99.90
2018-05-17T01:00:23.905Z,99.90
2018-05-17T01:05:31.098Z,99.90
2018-05-17T01:10:38.325Z,99.90
2018-05-17T01:15:45.491Z,99.90
2018-05-17T01:20:52.673Z,99.90
2018-05-17T01:26:00.582Z,99.90
2018-05-17T01:31:07.710Z,99.90
2018-05-17T01:36:15.603Z,99.90
2018-05-17T01:41:22.842Z,99.90
2018-05-17T01:46:29.917Z,99.90
2018-05-17T01:51:37.127Z,99.90
2018-05-17T01:56:45.031Z,99.90
2018-05-17T02:01:52.181Z,99.90
2018-05-17T02:06:59.238Z,99.90
2018-05-17T02:12:06.442Z,99.90
2018-05-17T02:17:13.534Z,99.90
2018-05-17T02:22:20.685Z,99.90
2018-05-17T02:27:27.790Z,99.90
2018-05-17T02:32:35.666Z,99.90
2018-05-17T02:37:43.589Z,99.90
2018-05-17T02:42:50.802Z,99.90
2018-05-17T02:47:58.008Z,99.90
2018-05-17T02:53:05.225Z,99.90
2018-05-17T02:58:12.335Z,99.90
2018-05-17T03:03:19.447Z,99.90
2018-05-17T03:08:26.681Z,99.90
2018-05-17T03:13:34.510Z,99.90
2018-05-17T03:18:41.654Z,99.90
2018-05-17T03:23:48.880Z,99.90
2018-05-17T03:28:56.067Z,99.90
2018-05-17T03:34:03.858Z,99.90
2018-05-17T03:39:10.912Z,99.90
2018-05-17T03:44:18.862Z,99.90
2018-05-17T03:49:26.797Z,99.90
2018-05-17T03:54:34.586Z,99.90
2018-05-17T03:59:41.714Z,99.90
2018-05-17T04:05:01.363Z,99.90
2018-05-17T04:10:08.382Z,99.90
2018-05-17T04:15:16.311Z,99.90
2018-05-17T04:20:24.315Z,99.90
2018-05-17T04:25:31.438Z,99.90
2018-05-17T04:30:39.340Z,99.90
2018-05-17T04:35:47.385Z,99.90
2018-05-17T04:40:54.422Z,99.90
2018-05-17T04:46:01.574Z,99.90
2018-05-17T04:51:08.674Z,99.90
2018-05-17T04:56:15.913Z,99.90
2018-05-17T05:01:22.983Z,99.90
2018-05-17T05:06:30.134Z,99.90
2018-05-17T05:11:37.267Z,99.90
2018-05-17T05:16:45.202Z,99.90
2018-05-17T05:21:52.450Z,99.90
2018-05-17T05:27:00.322Z,99.90
2018-05-17T05:32:08.251Z,99.90
2018-05-17T05:37:15.425Z,99.90
2018-05-17T05:42:22.639Z,99.90
2018-05-17T05:47:29.798Z,99.90
2018-05-17T05:52:36.968Z,99.90
2018-05-17T05:57:44.170Z,99.90
2018-05-17T06:02:51.341Z,99.90
2018-05-17T06:07:58.411Z,99.90
2018-05-17T06:13:05.491Z,99.90
2018-05-17T06:18:12.598Z,99.90
2018-05-17T06:23:20.482Z,99.90
2018-05-17T06:28:27.574Z,99.90
2018-05-17T06:33:34.781Z,99.90
2018-05-17T06:38:41.870Z,99.90
2018-05-17T06:43:49.188Z,99.90
2018-05-17T06:48:56.190Z,99.90
2018-05-17T06:54:04.102Z,99.90
2018-05-17T06:59:11.217Z,99.90
2018-05-17T07:04:19.124Z,99.90
2018-05-17T07:09:26.321Z,99.90
2018-05-17T07:14:34.246Z,99.90
2018-05-17T07:19:41.462Z,99.90
2018-05-17T07:24:48.595Z,99.90
2018-05-17T07:29:55.910Z,99.90
2018-05-17T07:35:03.797Z,99.90
2018-05-17T07:40:11.686Z,99.90
2018-05-17T07:45:18.882Z,99.90
2018-05-17T07:50:25.909Z,99.90
2018-05-17T07:55:33.119Z,99.90
2018-05-17T08:00:41.016Z,99.90
2018-05-17T08:05:48.221Z,99.90
2018-05-17T08:10:55.370Z,99.90
2018-05-17T08:16:02.493Z,99.40
2018-05-17T08:21:10.350Z,93.80
2018-05-17T08:26:17.450Z,93.70
2018-05-17T08:31:25.362Z,89.50
2018-05-17T08:36:32.636Z,89.50
2018-05-17T08:41:39.721Z,90.70
2018-05-17T08:46:47.036Z,75.40
2018-05-17T08:51:54.070Z,73.50
2018-05-17T08:57:01.174Z,73.10
2018-05-17T09:02:08.989Z,77.00
2018-05-17T09:07:16.037Z,77.00
2018-05-17T09:12:23.202Z,83.60
2018-05-17T09:17:30.327Z,80.00
2018-05-17T09:22:37.442Z,79.90
2018-05-17T09:27:44.609Z,74.40
2018-05-17T09:32:52.537Z,75.30
2018-05-17T09:37:59.710Z,75.30
2018-05-17T09:43:06.925Z,73.80
2018-05-17T09:48:14.138Z,73.50
2018-05-17T09:53:21.365Z,71.30
2018-05-17T09:58:29.245Z,67.50
2018-05-17T10:03:36.447Z,67.50
2018-05-17T10:08:43.511Z,62.70
2018-05-17T10:13:50.606Z,62.60
2018-05-17T10:18:57.661Z,63.60
2018-05-17T10:24:05.580Z,61.10
2018-05-17T10:29:13.487Z,58.60
2018-05-17T10:34:21.418Z,56.90
2018-05-17T10:39:29.230Z,61.20
2018-05-17T10:44:36.422Z,61.10
2018-05-17T10:49:43.642Z,61.30
2018-05-17T10:54:50.793Z,57.50
2018-05-17T10:59:58.637Z,53.20
2018-05-17T11:05:05.852Z,53.10
2018-05-17T11:10:13.766Z,59.00
2018-05-17T11:15:20.978Z,59.00
2018-05-17T11:20:28.098Z,59.20
2018-05-17T11:25:35.223Z,56.20
2018-05-17T11:30:42.330Z,56.50
2018-05-17T11:35:50.206Z,60.50
2018-05-17T11:40:57.363Z,60.50
2018-05-17T11:46:04.505Z,60.40
2018-05-17T11:51:11.754Z,60.10
2018-05-17T11:56:19.734Z,63.30
2018-05-17T12:01:26.928Z,63.30
2018-05-17T12:06:33.992Z,59.20
2018-05-17T12:11:41.233Z,61.00
2018-05-17T12:16:48.333Z,60.70
2018-05-17T12:21:56.281Z,65.30
2018-05-17T12:27:03.474Z,65.40
2018-05-17T12:32:11.482Z,62.50
2018-05-17T12:37:19.293Z,68.50
2018-05-17T12:42:26.386Z,68.40
2018-05-17T12:47:33.635Z,67.30
2018-05-17T12:52:40.794Z,68.60
2018-05-17T12:57:47.957Z,67.00
2018-05-17T13:02:55.106Z,68.10
2018-05-17T13:08:02.254Z,66.80
2018-05-17T13:13:09.422Z,62.90
2018-05-17T13:18:16.539Z,61.20
2018-05-17T13:23:23.769Z,61.90
2018-05-17T13:28:34.942Z,61.90
2018-05-17T13:33:42.060Z,58.00
2018-05-17T13:38:49.330Z,57.00
2018-05-17T13:43:57.342Z,55.50
2018-05-17T13:49:04.492Z,55.50
2018-05-17T13:54:11.546Z,54.20
2018-05-17T13:59:19.589Z,56.60
2018-05-17T14:04:27.489Z,54.60
2018-05-17T14:09:34.645Z,54.60
2018-05-17T14:14:41.743Z,57.70
2018-05-17T14:19:48.850Z,54.80
2018-05-17T14:24:56.109Z,55.30
2018-05-17T14:30:04.027Z,52.10
2018-05-17T14:35:11.844Z,52.80
2018-05-17T14:40:19.042Z,52.70
2018-05-17T14:45:26.171Z,52.30
2018-05-17T14:50:33.430Z,53.10
2018-05-17T14:55:40.657Z,55.00
2018-05-17T15:00:47.800Z,52.70
2018-05-17T15:05:55.050Z,52.60
2018-05-17T15:11:02.981Z,52.40
2018-05-17T15:16:10.105Z,52.40
2018-05-17T15:21:17.226Z,51.10
2018-05-17T15:26:25.206Z,51.40
2018-05-17T15:31:32.370Z,51.90
2018-05-17T15:36:40.340Z,49.30
2018-05-17T15:41:47.564Z,49.70
2018-05-17T15:46:55.545Z,50.50
2018-05-17T15:52:02.666Z,50.60
2018-05-17T15:57:10.572Z,48.50
2018-05-17T16:02:17.733Z,48.60
2018-05-17T16:07:25.589Z,49.00
2018-05-17T16:12:32.755Z,49.00
2018-05-17T16:17:39.951Z,49.20
2018-05-17T16:22:47.054Z,50.20
2018-05-17T16:27:54.138Z,48.60
2018-05-17T16:33:01.344Z,50.40
2018-05-17T16:38:08.498Z,47.90
2018-05-17T16:43:16.441Z,48.40
2018-05-17T16:48:23.576Z,48.40
2018-05-17T16:53:30.845Z,47.80
2018-05-17T16:58:38.784Z,48.60
2018-05-17T17:03:45.745Z,48.60
2018-05-17T17:08:53.666Z,48.40
2018-05-17T17:14:01.573Z,48.70
2018-05-17T17:19:08.754Z,48.70
2018-05-17T17:24:16.033Z,47.50
2018-05-17T17:29:23.913Z,50.60
2018-05-17T17:34:31.081Z,50.70
2018-05-17T17:39:38.218Z,50.50
2018-05-17T17:44:45.330Z,50.90
2018-05-17T17:49:53.425Z,51.80
2018-05-17T17:55:00.467Z,51.70
2018-05-17T18:00:07.691Z,52.90
2018-05-17T18:05:14.906Z,53.60
2018-05-17T18:10:21.797Z,52.30
2018-05-17T18:15:29.687Z,53.00
2018-05-17T18:20:36.894Z,52.90
2018-05-17T18:25:44.092Z,53.80
2018-05-17T18:30:51.246Z,54.20
2018-05-17T18:35:59.073Z,56.10
2018-05-17T18:41:06.283Z,56.00
2018-05-17T18:46:13.382Z,56.10
2018-05-17T18:51:21.311Z,57.40
2018-05-17T18:56:28.409Z,57.30
2018-05-17T19:01:35.549Z,57.60
2018-05-17T19:06:42.729Z,58.00
2018-05-17T19:11:50.646Z,58.50
2018-05-17T19:16:58.552Z,58.20
2018-05-17T19:22:05.745Z,58.10
2018-05-17T19:27:12.997Z,58.30
2018-05-17T19:32:20.326Z,58.20
2018-05-17T19:37:28.258Z,59.60
2018-05-17T19:42:35.434Z,59.60
2018-05-17T19:47:42.637Z,60.00
2018-05-17T19:52:49.807Z,62.60
2018-05-17T19:57:56.877Z,62.60
2018-05-17T20:03:04.098Z,63.90
2018-05-17T20:08:11.341Z,65.70
2018-05-17T20:13:18.457Z,67.10
2018-05-17T20:18:25.493Z,70.00
2018-05-17T20:23:32.631Z,71.00
2018-05-17T20:28:40.526Z,75.60
2018-05-17T20:33:47.722Z,75.60
2018-05-17T20:38:54.833Z,78.30
2018-05-17T20:44:01.955Z,81.20
2018-05-17T20:49:09.065Z,85.30
2018-05-17T20:54:16.222Z,86.60
2018-05-17T20:59:24.071Z,87.20
2018-05-17T21:04:31.198Z,87.20
2018-05-17T21:09:39.082Z,88.60
2018-05-17T21:14:46.163Z,88.70
2018-05-17T21:19:53.360Z,90.30
2018-05-17T21:25:00.586Z,90.10
2018-05-17T21:30:08.495Z,91.70
2018-05-17T21:35:15.618Z,91.80
2018-05-17T21:40:22.810Z,91.90
2018-05-17T21:45:30.008Z,92.20
2018-05-17T21:50:37.826Z,92.40
2018-05-17T21:55:45.634Z,93.10
2018-05-17T22:00:52.765Z,93.10
2018-05-17T22:06:00.670Z,93.20
2018-05-17T22:11:07.881Z,93.20
2018-05-17T22:16:15.010Z,94.10
2018-05-17T22:21:22.183Z,94.50
2018-05-17T22:26:29.366Z,94.10
2018-05-17T22:31:36.554Z,95.90
2018-05-17T22:36:43.790Z,95.60
2018-05-17T22:41:51.634Z,96.10
2018-05-17T22:46:58.710Z,96.00
2018-05-17T22:52:06.634Z,96.90
2018-05-17T22:57:13.841Z,96.90
2018-05-17T23:02:20.975Z,98.90
2018-05-17T23:07:28.237Z,99.20
2018-05-17T23:12:35.390Z,99.90
2018-05-17T23:17:42.635Z,99.90
2018-05-17T23:22:49.762Z,99.90
2018-05-17T23:27:57.666Z,99.90
2018-05-17T23:33:04.775Z,99.90
2018-05-17T23:38:11.971Z,99.90
2018-05-17T23:43:19.887Z,99.90
2018-05-17T23:48:27.209Z,99.90
2018-05-17T23:53:34.377Z,99.90
2018-05-17T23:58:42.321Z,99.90
